Time;durP1;ratioP1;P1;durP2;ratioP2;P2;SDS_P1;SDS_P2;PMS_P1;PMS_P2;Temp;Humidity;BMP_temperature;BMP_pressure;BME280_temperature;BME280_humidity;BME280_pressure;Samples;Min_cycle;Max_cycle;Signal;HPM_P1;HPM_P2
2023/04/21 00:02:07;;;;;;;12.07;10.27;;;8.30;1.00;;;;;;4949125;29;20188;-85
2023/04/21 00:04:32;;;;;;;13.20;10.97;;;8.30;1.00;;;;;;4944147;29;20210;-85
2023/04/21 00:07:01;;;;;;;13.13;10.33;;;8.20;1.00;;;;;;4944893;29;20192;-88
2023/04/21 00:09:27;;;;;;;13.10;10.63;;;8.30;1.00;;;;;;4948398;29;20164;-84
2023/04/21 00:11:53;;;;;;;12.97;10.40;;;8.20;1.00;;;;;;4941629;29;20335;-85
2023/04/21 00:14:19;;;;;;;12.53;11.00;;;8.20;1.00;;;;;;4948631;29;20585;-85
2023/04/21 00:16:45;;;;;;;11.80;10.67;;;8.20;1.00;;;;;;4954100;29;20223;-86
2023/04/21 00:19:12;;;;;;;13.77;10.47;;;8.30;1.00;;;;;;4962979;29;20171;-86
2023/04/21 00:21:38;;;;;;;12.73;10.83;;;8.30;1.00;;;;;;4957848;29;20196;-84
2023/04/21 00:24:14;;;;;;;12.50;11.07;;;8.30;1.00;;;;;;4952857;29;20173;-85
2023/04/21 00:26:40;;;;;;;13.33;10.67;;;8.40;1.00;;;;;;4949647;29;20546;-86
2023/04/21 00:29:05;;;;;;;13.20;11.87;;;8.40;1.00;;;;;;4966405;29;20267;-87
2023/04/21 00:31:31;;;;;;;12.30;11.00;;;8.50;1.00;;;;;;4947065;29;20205;-87
2023/04/21 00:33:57;;;;;;;11.10;10.00;;;8.40;1.00;;;;;;4944727;29;20235;-87
2023/04/21 00:36:27;;;;;;;14.20;11.13;;;8.50;1.00;;;;;;4946147;29;20184;-84
2023/04/21 00:38:53;;;;;;;15.50;12.10;;;8.50;1.00;;;;;;4955054;29;20204;-85
2023/04/21 00:41:19;;;;;;;13.50;12.10;;;8.50;1.00;;;;;;4951624;29;20204;-85
2023/04/21 00:44:04;;;;;;;13.30;11.90;;;8.60;1.00;;;;;;4952174;29;20180;-86
2023/04/21 00:46:30;;;;;;;13.90;12.50;;;8.50;1.00;;;;;;4949570;29;20597;-85
2023/04/21 00:48:58;;;;;;;13.07;11.77;;;8.50;1.00;;;;;;4950488;29;20184;-86
2023/04/21 00:51:28;;;;;;;13.10;11.70;;;8.50;1.00;;;;;;4942271;29;20188;-86
2023/04/21 00:53:59;;;;;;;12.70;11.37;;;8.60;1.00;;;;;;4943278;29;20204;-86
2023/04/21 00:56:27;;;;;;;14.60;12.47;;;8.50;2.90;;;;;;4941914;29;20192;-86
2023/04/21 00:58:54;;;;;;;14.07;12.67;;;8.50;6.20;;;;;;4940776;29;20191;-86
2023/04/21 01:01:20;;;;;;;13.20;11.80;;;8.50;8.80;;;;;;4939827;29;20657;-86
2023/04/21 01:03:46;;;;;;;13.70;12.30;;;8.50;11.60;;;;;;4938172;29;20200;-85
2023/04/21 01:06:13;;;;;;;14.27;12.77;;;8.50;16.50;;;;;;4940212;29;20577;-86
2023/04/21 01:08:39;;;;;;;13.80;12.40;;;8.60;16.30;;;;;;4938829;29;20223;-86
2023/04/21 01:11:12;;;;;;;14.73;13.20;;;8.60;19.40;;;;;;4938953;29;20183;-85
2023/04/21 01:13:38;;;;;;;15.10;13.60;;;8.60;21.80;;;;;;4940015;29;20220;-85
2023/04/21 01:16:07;;;;;;;15.03;13.43;;;8.60;23.20;;;;;;4938146;29;20184;-86
2023/04/21 01:18:35;;;;;;;16.07;14.37;;;8.50;26.70;;;;;;4938898;29;20180;-85
2023/04/21 01:21:01;;;;;;;15.60;13.63;;;8.40;32.20;;;;;;4938034;29;20191;-85
2023/04/21 01:23:27;;;;;;;16.87;14.83;;;8.30;38.60;;;;;;4940305;29;20180;-85
2023/04/21 01:25:52;;;;;;;18.13;16.23;;;8.30;44.20;;;;;;4956113;29;20211;-85
2023/04/21 01:28:22;;;;;;;17.37;15.50;;;8.20;49.30;;;;;;4938553;29;20283;-85
2023/04/21 01:30:48;;;;;;;18.03;14.93;;;8.20;55.90;;;;;;4939729;29;20687;-85
2023/04/21 01:33:13;;;;;;;19.40;17.37;;;8.10;61.50;;;;;;4939687;29;20220;-85
2023/04/21 01:35:39;;;;;;;19.50;17.37;;;8.10;69.60;;;;;;4941194;29;20192;-84
2023/04/21 01:38:05;;;;;;;19.13;16.47;;;8.00;75.20;;;;;;4941549;29;20188;-85
2023/04/21 01:40:31;;;;;;;20.43;18.23;;;8.00;80.50;;;;;;4938355;29;20243;-84
2023/04/21 01:42:58;;;;;;;21.77;19.47;;;8.00;86.20;;;;;;4945299;29;20192;-86
2023/04/21 01:45:24;;;;;;;21.93;19.63;;;8.00;89.50;;;;;;4944553;29;20283;-85
2023/04/21 01:47:50;;;;;;;21.67;19.47;;;8.00;91.00;;;;;;4938974;29;20271;-85
2023/04/21 01:50:15;;;;;;;21.93;19.60;;;8.10;91.90;;;;;;4937465;29;20205;-85
2023/04/21 01:52:41;;;;;;;22.13;19.77;;;8.10;92.90;;;;;;4938199;29;20828;-85
2023/04/21 01:55:07;;;;;;;24.07;21.57;;;8.10;93.70;;;;;;4944494;29;20234;-85
2023/04/21 01:57:33;;;;;;;23.60;21.10;;;8.10;95.40;;;;;;4941940;29;20533;-86
2023/04/21 01:59:59;;;;;;;23.43;21.00;;;8.10;96.30;;;;;;4957708;29;20219;-85
2023/04/21 02:02:25;;;;;;;25.00;22.40;;;8.20;96.90;;;;;;4939689;29;20195;-85
2023/04/21 02:04:50;;;;;;;24.70;22.10;;;8.20;98.20;;;;;;4955390;28;20267;-85
2023/04/21 02:07:16;;;;;;;24.83;22.13;;;8.20;98.30;;;;;;4945652;29;20184;-85
2023/04/21 02:09:42;;;;;;;25.97;23.17;;;8.20;99.70;;;;;;4950952;29;20172;-83
2023/04/21 02:12:08;;;;;;;25.10;22.13;;;8.20;99.90;;;;;;4966856;28;20709;-84
2023/04/21 02:14:36;;;;;;;28.33;25.13;;;8.20;99.90;;;;;;4959863;29;20200;-85
2023/04/21 02:17:02;;;;;;;28.37;24.73;;;8.10;99.90;;;;;;4976042;29;20192;-85
2023/04/21 02:19:28;;;;;;;28.60;25.50;;;8.10;99.90;;;;;;4954728;28;20180;-85
2023/04/21 02:22:07;;;;;;;27.77;24.47;;;8.10;99.90;;;;;;4961759;28;20196;-85
2023/04/21 02:24:34;;;;;;;28.80;25.73;;;8.10;99.90;;;;;;4963564;29;20191;-85
2023/04/21 02:27:00;;;;;;;27.77;24.77;;;8.10;99.90;;;;;;4962406;29;20217;-85
2023/04/21 02:29:26;;;;;;;29.87;26.67;;;8.00;99.90;;;;;;4974607;29;20200;-85
2023/04/21 02:31:52;;;;;;;28.97;25.67;;;8.00;99.90;;;;;;4943712;29;20212;-86
2023/04/21 02:34:31;;;;;;;31.03;25.63;;;8.00;99.90;;;;;;4960533;29;20173;-85
2023/04/21 02:36:58;;;;;;;31.80;27.40;;;8.00;99.90;;;;;;4943036;29;20184;-86
2023/04/21 02:39:24;;;;;;;32.17;26.43;;;8.00;99.90;;;;;;4960104;29;20204;-86
2023/04/21 02:41:51;;;;;;;32.33;28.57;;;8.00;99.90;;;;;;4944220;29;20211;-85
2023/04/21 02:44:17;;;;;;;32.63;27.83;;;8.00;99.90;;;;;;4943699;29;20219;-86
2023/04/21 02:46:43;;;;;;;32.13;28.40;;;8.00;99.90;;;;;;4945753;29;20185;-86
2023/04/21 02:49:09;;;;;;;33.00;28.77;;;8.00;99.90;;;;;;4943420;29;20184;-85
2023/04/21 02:51:35;;;;;;;33.10;28.63;;;8.00;99.90;;;;;;4944411;29;20187;-85
2023/04/21 02:54:01;;;;;;;32.60;29.07;;;8.00;99.90;;;;;;4942512;29;20565;-86
2023/04/21 02:56:27;;;;;;;34.90;29.73;;;8.00;99.90;;;;;;4949562;29;20192;-86
2023/04/21 02:58:53;;;;;;;34.97;31.17;;;8.00;99.90;;;;;;4946376;29;20192;-85
2023/04/21 03:01:19;;;;;;;33.63;29.90;;;8.00;99.90;;;;;;4967097;29;20234;-84
2023/04/21 03:03:45;;;;;;;35.93;31.07;;;7.90;99.90;;;;;;4949879;29;20196;-84
2023/04/21 03:06:11;;;;;;;33.40;28.50;;;7.90;99.90;;;;;;4960066;29;20208;-85
2023/04/21 03:08:37;;;;;;;33.90;30.20;;;8.00;99.90;;;;;;4943586;29;20190;-86
2023/04/21 03:11:02;;;;;;;33.53;28.90;;;7.90;99.90;;;;;;4942726;29;20184;-86
2023/04/21 03:13:29;;;;;;;34.53;30.03;;;8.00;99.90;;;;;;4944604;29;20250;-85
2023/04/21 03:15:57;;;;;;;35.97;32.07;;;8.00;99.90;;;;;;4965469;29;20160;-85
2023/04/21 03:18:23;;;;;;;35.43;31.57;;;7.90;99.90;;;;;;4943646;29;20258;-85
2023/04/21 03:20:49;;;;;;;36.30;31.37;;;7.90;99.90;;;;;;4962959;29;20190;-85
2023/04/21 03:23:15;;;;;;;35.67;30.80;;;8.00;99.90;;;;;;4946271;29;20184;-86
2023/04/21 03:25:41;;;;;;;35.40;30.17;;;7.90;99.90;;;;;;4948081;28;20168;-86
2023/04/21 03:28:07;;;;;;;36.50;32.53;;;8.00;99.90;;;;;;4946529;29;20188;-84
2023/04/21 03:30:32;;;;;;;39.23;33.23;;;8.00;99.90;;;;;;4945795;29;20230;-83
2023/04/21 03:32:58;;;;;;;37.47;31.23;;;8.00;99.90;;;;;;4946484;29;20216;-86
2023/04/21 03:35:24;;;;;;;36.63;30.87;;;8.10;99.90;;;;;;4946942;29;20184;-85
2023/04/21 03:37:49;;;;;;;35.80;31.50;;;8.10;99.90;;;;;;4943919;29;20649;-86
2023/04/21 03:40:15;;;;;;;39.00;32.57;;;8.10;99.90;;;;;;4943775;29;20191;-86
2023/04/21 03:42:41;;;;;;;34.93;31.23;;;8.10;99.90;;;;;;4978139;28;20184;-84
2023/04/21 03:45:09;;;;;;;36.70;31.60;;;8.10;99.90;;;;;;4961850;29;20173;-84
2023/04/21 03:47:35;;;;;;;35.90;31.60;;;8.10;99.90;;;;;;4961199;29;20447;-84
2023/04/21 03:50:04;;;;;;;36.50;32.03;;;8.20;99.90;;;;;;4961043;29;20188;-84
2023/04/21 03:52:30;;;;;;;37.20;33.23;;;8.20;99.90;;;;;;4945522;29;20652;-85
2023/04/21 03:54:59;;;;;;;32.50;28.47;;;8.10;99.90;;;;;;4945788;29;20208;-85
2023/04/21 03:57:25;;;;;;;37.30;32.43;;;8.10;99.90;;;;;;4953925;29;20203;-83
2023/04/21 03:59:51;;;;;;;33.93;30.27;;;8.10;99.90;;;;;;4956993;29;20188;-85
2023/04/21 04:02:16;;;;;;;35.97;32.03;;;8.10;99.90;;;;;;4960532;29;20195;-85
2023/04/21 04:04:42;;;;;;;43.30;32.67;;;8.10;99.90;;;;;;4953834;29;20208;-85
2023/04/21 04:07:08;;;;;;;35.63;31.53;;;8.10;99.90;;;;;;4951047;29;20188;-85
2023/04/21 04:09:34;;;;;;;35.20;31.03;;;8.10;99.90;;;;;;4952148;29;20184;-84
2023/04/21 04:12:02;;;;;;;34.07;29.47;;;8.10;99.90;;;;;;4958078;28;20235;-83
2023/04/21 04:14:28;;;;;;;36.97;32.30;;;8.10;99.90;;;;;;4955349;28;20285;-86
2023/04/21 04:16:57;;;;;;;36.07;32.17;;;8.10;99.90;;;;;;4941533;29;20255;-84
2023/04/21 04:19:28;;;;;;;35.50;29.53;;;8.10;99.90;;;;;;4948135;29;20235;-84
2023/04/21 04:21:54;;;;;;;37.30;31.90;;;8.10;99.90;;;;;;4941105;29;20276;-85
2023/04/21 04:24:20;;;;;;;37.07;31.73;;;8.10;99.90;;;;;;4939325;29;20275;-85
2023/04/21 04:26:46;;;;;;;37.33;31.30;;;8.10;99.90;;;;;;4939397;29;20655;-85
2023/04/21 04:29:15;;;;;;;38.23;31.60;;;8.10;99.90;;;;;;4939792;29;20202;-85
2023/04/21 04:31:41;;;;;;;36.10;31.37;;;8.10;99.90;;;;;;4940550;29;20256;-86
2023/04/21 04:34:08;;;;;;;36.53;32.57;;;8.10;99.90;;;;;;4957564;28;20181;-84
2023/04/21 04:36:34;;;;;;;37.07;30.87;;;8.10;99.90;;;;;;4940817;29;20188;-86
2023/04/21 04:39:00;;;;;;;36.13;31.80;;;8.00;99.90;;;;;;4941044;29;20238;-85
2023/04/21 04:41:29;;;;;;;36.33;31.37;;;8.10;99.90;;;;;;4950806;29;20208;-86
2023/04/21 04:43:58;;;;;;;36.40;31.27;;;8.10;99.90;;;;;;4949315;29;20539;-86
2023/04/21 04:46:27;;;;;;;35.40;30.80;;;8.10;99.90;;;;;;4939543;29;20192;-86
2023/04/21 04:48:55;;;;;;;38.07;31.80;;;8.20;99.90;;;;;;4939449;29;20185;-86
2023/04/21 04:51:21;;;;;;;40.13;31.10;;;8.20;99.90;;;;;;4955463;29;20590;-83
2023/04/21 04:53:47;;;;;;;35.67;30.57;;;8.20;99.90;;;;;;4942508;29;20661;-86
2023/04/21 04:56:13;;;;;;;37.50;31.20;;;8.20;99.90;;;;;;4951350;29;20192;-85
2023/04/21 04:58:39;;;;;;;34.87;31.07;;;8.20;99.90;;;;;;4947863;29;20185;-85
2023/04/21 05:01:12;;;;;;;35.73;31.23;;;8.20;99.90;;;;;;4940650;29;20191;-85
2023/04/21 05:03:38;;;;;;;32.87;28.40;;;8.30;99.90;;;;;;4940950;29;20204;-86
2023/04/21 05:06:04;;;;;;;33.33;29.70;;;8.20;99.90;;;;;;4956979;29;20711;-88
2023/04/21 05:08:30;;;;;;;33.73;29.13;;;8.20;99.90;;;;;;4939839;29;20183;-86
2023/04/21 05:10:55;;;;;;;33.00;28.77;;;8.40;99.90;;;;;;4939628;29;20184;-85
2023/04/21 05:13:21;;;;;;;31.37;27.97;;;8.10;99.90;;;;;;4922907;29;20251;-85
2023/04/21 05:15:47;;;;;;;34.27;29.60;;;8.10;99.90;;;;;;4938162;29;20659;-87
2023/04/21 05:18:12;;;;;;;32.27;28.80;;;8.10;99.90;;;;;;4939166;29;20184;-86
2023/04/21 05:20:41;;;;;;;32.10;26.60;;;8.20;99.90;;;;;;4956018;29;20714;-86
2023/04/21 05:23:08;;;;;;;31.73;26.77;;;8.10;99.90;;;;;;4939818;29;20234;-85
2023/04/21 05:25:34;;;;;;;31.67;27.17;;;8.20;99.90;;;;;;4937662;29;20272;-86
2023/04/21 05:28:01;;;;;;;32.17;27.43;;;8.20;99.90;;;;;;4938405;29;20645;-86
2023/04/21 05:30:27;;;;;;;30.13;26.47;;;8.20;99.90;;;;;;4956337;29;20193;-86
2023/04/21 05:32:53;;;;;;;27.57;24.03;;;8.30;99.90;;;;;;4937807;29;20271;-85
2023/04/21 05:35:20;;;;;;;29.27;25.07;;;8.20;99.90;;;;;;4939426;29;20192;-85
2023/04/21 05:37:46;;;;;;;29.47;25.10;;;8.30;99.90;;;;;;4947784;29;20641;-85
2023/04/21 05:40:12;;;;;;;27.20;23.80;;;8.30;99.90;;;;;;4956256;29;20239;-85
2023/04/21 05:42:37;;;;;;;28.43;25.03;;;8.40;99.90;;;;;;4939405;29;20180;-85
2023/04/21 05:45:05;;;;;;;29.47;24.07;;;8.40;99.90;;;;;;4940063;29;20604;-87
2023/04/21 05:47:31;;;;;;;26.97;22.97;;;8.50;99.90;;;;;;4943827;29;20260;-84
2023/04/21 05:49:56;;;;;;;24.73;22.00;;;8.50;99.90;;;;;;4969712;29;20208;-84
2023/04/21 05:52:25;;;;;;;24.40;21.10;;;8.60;99.90;;;;;;4953793;28;20231;-85
2023/04/21 05:54:51;;;;;;;25.57;22.87;;;8.50;99.90;;;;;;4940729;29;20183;-85
2023/04/21 05:57:16;;;;;;;28.60;23.50;;;8.60;99.90;;;;;;4958457;29;20604;-87
2023/04/21 06:00:14;;;;;;;26.60;23.80;;;8.50;99.90;;;;;;4943115;29;20236;-85
2023/04/21 06:02:43;;;;;;;24.83;22.13;;;8.60;99.90;;;;;;4888483;28;20659;-84
2023/04/21 06:05:09;;;;;;;25.10;22.37;;;8.60;99.90;;;;;;4922733;29;20264;-85
2023/04/21 06:07:36;;;;;;;25.40;22.43;;;8.50;99.90;;;;;;4931245;29;20177;-87
2023/04/21 06:10:03;;;;;;;25.93;23.23;;;8.50;99.90;;;;;;4940503;29;20637;-85
2023/04/21 06:12:30;;;;;;;25.23;21.80;;;8.50;99.90;;;;;;4924828;29;20223;-86
2023/04/21 06:14:58;;;;;;;28.23;23.33;;;8.60;99.90;;;;;;4937299;29;20220;-85
2023/04/21 06:17:23;;;;;;;24.10;21.17;;;8.50;99.90;;;;;;4937432;29;20193;-88
2023/04/21 06:19:52;;;;;;;25.20;22.20;;;8.50;99.90;;;;;;4918657;29;20693;-88
2023/04/21 06:22:23;;;;;;;22.97;20.47;;;8.50;99.90;;;;;;4918748;29;20189;-86
2023/04/21 06:24:51;;;;;;;22.60;20.20;;;8.50;99.90;;;;;;4920494;29;20362;-86
2023/04/21 06:27:17;;;;;;;22.70;19.43;;;8.60;99.90;;;;;;4937918;29;20233;-85
2023/04/21 06:29:42;;;;;;;23.03;19.93;;;8.60;99.90;;;;;;4926682;29;20181;-86
2023/04/21 06:32:10;;;;;;;23.60;21.10;;;8.70;99.90;;;;;;4945502;29;20220;-86
2023/04/21 06:34:39;;;;;;;23.33;20.70;;;8.90;99.90;;;;;;4926184;29;20278;-88
2023/04/21 06:37:05;;;;;;;23.43;20.70;;;9.00;99.90;;;;;;4908308;29;20199;-86
2023/04/21 06:39:31;;;;;;;24.87;21.60;;;9.10;99.20;;;;;;4920998;29;20177;-85
2023/04/21 06:41:57;;;;;;;22.87;20.37;;;9.10;97.60;;;;;;4942218;29;20183;-87
2023/04/21 06:44:37;;;;;;;24.03;20.87;;;9.10;96.50;;;;;;4926991;29;20193;-87
2023/04/21 06:47:05;;;;;;;23.87;19.70;;;9.30;97.20;;;;;;4923977;29;20181;-86
2023/04/21 06:49:32;;;;;;;22.37;19.50;;;9.40;96.10;;;;;;4931419;29;20220;-85
2023/04/21 06:51:58;;;;;;;22.93;19.80;;;9.40;92.30;;;;;;4937109;29;20277;-88
2023/04/21 06:54:25;;;;;;;20.13;18.13;;;9.60;91.20;;;;;;4939158;29;20215;-87
2023/04/21 06:56:51;;;;;;;21.43;19.13;;;9.90;90.70;;;;;;4936642;29;20196;-87
2023/04/21 06:59:17;;;;;;;22.07;19.50;;;10.10;82.50;;;;;;4937992;29;20200;-88
2023/04/21 07:01:43;;;;;;;20.10;17.93;;;10.20;77.80;;;;;;4951972;29;20193;-86
2023/04/21 07:04:09;;;;;;;19.90;17.63;;;9.90;70.50;;;;;;4935072;29;20226;-86
2023/04/21 07:06:36;;;;;;;20.23;16.97;;;9.80;74.30;;;;;;4942137;29;20188;-86
2023/04/21 07:09:01;;;;;;;18.70;16.67;;;9.80;72.40;;;;;;4957736;29;20203;-87
2023/04/21 07:11:27;;;;;;;18.33;16.33;;;9.70;68.80;;;;;;4942042;29;20247;-87
2023/04/21 07:13:54;;;;;;;17.43;15.63;;;9.90;70.30;;;;;;4944888;29;20327;-86
2023/04/21 07:16:19;;;;;;;17.67;15.83;;;10.00;67.20;;;;;;4969550;29;20208;-86
2023/04/21 07:18:45;;;;;;;16.73;14.93;;;9.90;64.50;;;;;;4948822;29;20196;-88
2023/04/21 07:21:14;;;;;;;19.97;17.23;;;10.00;63.40;;;;;;4943783;29;20248;-87
2023/04/21 07:23:39;;;;;;;17.90;16.03;;;10.20;61.10;;;;;;4942846;29;20192;-86
2023/04/21 07:26:05;;;;;;;19.63;16.60;;;10.40;58.40;;;;;;4941851;29;20207;-85
2023/04/21 07:28:31;;;;;;;17.63;15.83;;;10.70;57.10;;;;;;4941143;29;20202;-86
2023/04/21 07:30:57;;;;;;;17.53;15.27;;;11.00;52.80;;;;;;4941487;29;20680;-86
2023/04/21 07:33:23;;;;;;;16.93;14.90;;;10.80;40.20;;;;;;4945271;29;20251;-85
2023/04/21 07:35:52;;;;;;;16.27;13.30;;;10.90;41.00;;;;;;4940742;29;20184;-86
2023/04/21 07:38:17;;;;;;;15.87;14.23;;;10.90;36.00;;;;;;4948776;29;20275;-86
2023/04/21 07:40:43;;;;;;;15.57;13.87;;;10.60;35.00;;;;;;4950997;29;20199;-84
2023/04/21 07:43:09;;;;;;;16.03;14.33;;;10.50;36.70;;;;;;4947063;29;20189;-87
2023/04/21 07:45:37;;;;;;;15.77;14.07;;;10.50;42.10;;;;;;4941662;29;20223;-86
2023/04/21 07:48:04;;;;;;;15.93;13.27;;;10.70;41.60;;;;;;4940246;29;20180;-87
2023/04/21 07:50:32;;;;;;;16.07;14.37;;;10.70;31.20;;;;;;4940284;29;20645;-88
2023/04/21 07:52:57;;;;;;;15.37;13.77;;;10.60;35.80;;;;;;4941329;29;20216;-86
2023/04/21 07:55:23;;;;;;;17.73;13.57;;;10.90;32.90;;;;;;4941051;29;20188;-86
2023/04/21 07:57:49;;;;;;;15.03;13.57;;;11.00;25.20;;;;;;4942264;29;20692;-86
2023/04/21 08:00:18;;;;;;;15.03;13.40;;;11.00;19.50;;;;;;4941872;29;20181;-87
2023/04/21 08:02:44;;;;;;;14.40;12.90;;;11.00;21.60;;;;;;4946276;29;20188;-87
2023/04/21 08:05:10;;;;;;;15.63;13.60;;;11.00;18.80;;;;;;4948362;29;20580;-87
2023/04/21 08:07:37;;;;;;;14.40;12.90;;;11.00;17.80;;;;;;4977559;28;20188;-86
2023/04/21 08:10:03;;;;;;;15.37;13.67;;;11.00;20.20;;;;;;4958149;29;20204;-87
2023/04/21 08:12:31;;;;;;;15.13;13.63;;;11.10;23.90;;;;;;4954488;29;20212;-87
2023/04/21 08:14:57;;;;;;;15.30;13.70;;;11.30;22.50;;;;;;4957798;29;20331;-86
2023/04/21 08:17:24;;;;;;;13.77;12.47;;;11.60;12.70;;;;;;4950164;29;20189;-88
2023/04/21 08:19:50;;;;;;;14.37;12.87;;;11.70;6.00;;;;;;4951164;29;20195;-85
2023/04/21 08:22:18;;;;;;;14.17;12.57;;;12.00;1.00;;;;;;4962691;29;20189;-86
2023/04/21 08:24:45;;;;;;;14.97;13.37;;;12.10;1.00;;;;;;4943256;29;20177;-84
2023/04/21 08:27:12;;;;;;;12.73;11.50;;;12.00;1.00;;;;;;4941553;29;20173;-87
2023/04/21 08:29:37;;;;;;;12.97;11.67;;;12.20;1.00;;;;;;4941288;29;20172;-86
2023/04/21 08:32:03;;;;;;;13.97;12.57;;;12.50;1.00;;;;;;4940508;29;20212;-87
2023/04/21 08:34:29;;;;;;;14.70;11.47;;;12.60;1.00;;;;;;4942313;29;20177;-87
2023/04/21 08:36:55;;;;;;;15.30;12.10;;;12.70;1.00;;;;;;4942481;29;20192;-86
2023/04/21 08:39:22;;;;;;;13.17;11.87;;;13.00;1.00;;;;;;4956773;29;20172;-88
2023/04/21 08:41:51;;;;;;;11.23;10.03;;;13.00;1.00;;;;;;4940665;29;20189;-87
2023/04/21 08:44:18;;;;;;;12.33;11.03;;;12.60;1.00;;;;;;4941041;29;20665;-85
2023/04/21 08:46:55;;;;;;;13.57;11.53;;;12.60;1.00;;;;;;4949266;29;20177;-86
2023/04/21 08:49:24;;;;;;;12.17;10.97;;;12.50;1.00;;;;;;4941323;29;20191;-87
2023/04/21 08:51:50;;;;;;;12.63;11.20;;;12.50;1.00;;;;;;4939276;29;20192;-84
2023/04/21 08:54:16;;;;;;;12.33;11.00;;;12.80;1.00;;;;;;4940263;29;20205;-85
2023/04/21 08:56:41;;;;;;;11.70;10.60;;;13.10;1.00;;;;;;4940218;29;20655;-86
2023/04/21 08:59:07;;;;;;;12.30;10.87;;;13.40;1.00;;;;;;4942079;29;20217;-86
2023/04/21 09:01:53;;;;;;;11.47;10.30;;;13.50;1.00;;;;;;4963231;29;20217;-87
2023/04/21 09:04:18;;;;;;;11.47;9.43;;;13.40;1.00;;;;;;4940270;29;20611;-86
2023/04/21 09:06:45;;;;;;;11.00;9.60;;;13.10;1.00;;;;;;4940538;29;20176;-85
2023/04/21 09:09:10;;;;;;;11.57;10.10;;;12.90;1.00;;;;;;4942110;29;20193;-86
2023/04/21 09:11:36;;;;;;;12.37;11.07;;;12.90;1.00;;;;;;4941184;29;20543;-88
2023/04/21 09:14:02;;;;;;;12.27;10.43;;;13.20;1.00;;;;;;4939242;29;20222;-86
2023/04/21 09:16:33;;;;;;;12.23;10.40;;;13.50;1.00;;;;;;4956204;29;20174;-86
2023/04/21 09:19:00;;;;;;;11.70;10.50;;;13.60;1.00;;;;;;4939165;29;20193;-87
2023/04/21 09:21:30;;;;;;;13.40;10.47;;;13.70;1.00;;;;;;4957956;28;20178;-86
2023/04/21 09:23:56;;;;;;;11.57;10.47;;;13.60;1.00;;;;;;4942544;29;20181;-86
2023/04/21 09:26:22;;;;;;;12.33;11.03;;;13.40;1.00;;;;;;4944907;29;20697;-87
2023/04/21 09:28:49;;;;;;;13.47;12.07;;;13.40;1.00;;;;;;4975241;29;20178;-83
2023/04/21 09:31:18;;;;;;;13.67;12.27;;;13.40;1.00;;;;;;4955876;29;20211;-85
2023/04/21 09:33:55;;;;;;;12.53;11.37;;;13.30;1.00;;;;;;4953644;29;20240;-85
2023/04/21 09:36:34;;;;;;;14.30;12.60;;;13.10;1.00;;;;;;4940730;29;20243;-85
2023/04/21 09:39:03;;;;;;;13.57;12.17;;;13.20;1.00;;;;;;4940508;29;20203;-88
2023/04/21 09:41:31;;;;;;;13.03;11.67;;;13.30;1.00;;;;;;4956955;29;20592;-85
2023/04/21 09:44:00;;;;;;;13.00;11.67;;;13.40;1.00;;;;;;4940179;29;20637;-85
2023/04/21 09:46:29;;;;;;;12.13;10.93;;;13.30;1.00;;;;;;4938957;29;20185;-86
2023/04/21 09:49:00;;;;;;;14.00;12.00;;;13.20;1.00;;;;;;4941736;29;20178;-86
2023/04/21 09:51:26;;;;;;;12.17;10.43;;;13.20;1.00;;;;;;4941576;29;20177;-84
2023/04/21 09:53:57;;;;;;;10.93;9.30;;;13.30;1.00;;;;;;4940052;29;20592;-86
2023/04/21 09:56:25;;;;;;;11.63;9.70;;;13.20;1.00;;;;;;4940537;29;20584;-87
2023/04/21 09:58:57;;;;;;;10.13;9.07;;;13.30;1.00;;;;;;4961158;29;20291;-84
2023/04/21 10:01:28;;;;;;;11.37;9.20;;;13.30;1.00;;;;;;4947535;29;20245;-86
2023/04/21 10:03:54;;;;;;;10.90;9.17;;;13.40;1.00;;;;;;4958489;28;20182;-86
2023/04/21 10:06:22;;;;;;;9.43;8.37;;;13.60;1.00;;;;;;4961768;28;20185;-85
2023/04/21 10:08:49;;;;;;;10.77;8.60;;;13.60;1.00;;;;;;4960092;28;20492;-87
2023/04/21 10:11:18;;;;;;;9.33;8.33;;;13.60;1.00;;;;;;4954547;28;20239;-87
2023/04/21 10:13:49;;;;;;;8.80;7.90;;;13.70;1.00;;;;;;4950567;29;20221;-85
2023/04/21 10:16:25;;;;;;;9.47;8.20;;;13.90;1.00;;;;;;4950256;28;20219;-86
2023/04/21 10:18:52;;;;;;;9.50;8.57;;;14.10;1.00;;;;;;4943265;29;20188;-86
2023/04/21 10:21:20;;;;;;;12.07;9.97;;;14.10;1.00;;;;;;4943273;29;20198;-84
2023/04/21 10:23:52;;;;;;;9.50;8.50;;;14.00;1.00;;;;;;4942665;29;20189;-86
2023/04/21 10:26:24;;;;;;;11.20;9.80;;;14.00;1.00;;;;;;4940727;29;20554;-86
2023/04/21 10:28:59;;;;;;;11.90;9.40;;;14.00;1.00;;;;;;4942510;29;20198;-86
2023/04/21 10:31:28;;;;;;;10.37;9.27;;;13.80;1.00;;;;;;4940672;28;20212;-84
2023/04/21 10:34:07;;;;;;;9.73;8.73;;;13.90;1.00;;;;;;4948535;29;20682;-86
2023/04/21 10:36:47;;;;;;;10.73;9.63;;;13.90;1.00;;;;;;4977703;29;20239;-85
2023/04/21 10:39:32;;;;;;;11.00;9.90;;;13.90;1.00;;;;;;4946768;29;20202;-86
2023/04/21 10:42:16;;;;;;;10.67;8.53;;;14.00;1.00;;;;;;4947328;29;20695;-87
2023/04/21 10:45:13;;;;;;;9.60;8.60;;;14.00;1.00;;;;;;4943884;29;20208;-86
2023/04/21 10:47:50;;;;;;;9.57;8.60;;;14.20;1.00;;;;;;4951104;29;20204;-86
2023/04/21 10:50:27;;;;;;;9.70;8.13;;;14.50;1.00;;;;;;4943898;29;20242;-85
2023/04/21 10:52:56;;;;;;;10.57;8.80;;;14.80;1.00;;;;;;4952215;29;20234;-88
2023/04/21 10:55:25;;;;;;;9.83;8.03;;;14.90;1.00;;;;;;4942645;29;20593;-86
2023/04/21 10:57:52;;;;;;;11.17;8.80;;;14.80;1.00;;;;;;4959326;29;20215;-87
2023/04/21 11:00:21;;;;;;;9.07;7.63;;;14.70;1.00;;;;;;4946815;29;20188;-85
2023/04/21 11:03:14;;;;;;;7.97;7.17;;;14.80;1.00;;;;;;4950818;29;20239;-87
2023/04/21 11:05:41;;;;;;;9.80;7.80;;;14.90;1.00;;;;;;4938624;29;20196;-86
2023/04/21 11:08:16;;;;;;;10.37;8.27;;;15.00;99.90;;;;;;4942241;29;20190;-86
2023/04/21 11:10:49;;;;;;;10.50;9.40;;;15.10;1.00;;;;;;4947619;29;20176;-86
2023/04/21 11:13:15;;;;;;;12.07;9.07;;;15.20;1.00;;;;;;4941380;29;20314;-87
2023/04/21 11:15:54;;;;;;;9.57;8.30;;;15.10;1.00;;;;;;4944882;29;20194;-86
2023/04/21 11:18:20;;;;;;;10.40;9.23;;;15.20;1.00;;;;;;4952608;29;20189;-86
2023/04/21 11:20:46;;;;;;;10.40;9.30;;;15.00;1.00;;;;;;4944126;29;20185;-85
2023/04/21 11:23:18;;;;;;;10.63;8.87;;;15.00;1.00;;;;;;4953055;29;20711;-84
2023/04/21 11:25:50;;;;;;;10.63;8.43;;;15.00;1.00;;;;;;4951300;29;20180;-88
2023/04/21 11:28:20;;;;;;;9.83;7.47;;;15.10;1.00;;;;;;4941812;29;20176;-87
2023/04/21 11:30:47;;;;;;;8.97;8.07;;;15.30;99.90;;;;;;4941763;29;20652;-88
2023/04/21 11:33:13;;;;;;;8.07;7.27;;;15.70;99.90;;;;;;4941223;29;20247;-87
2023/04/21 11:35:40;;;;;;;8.77;7.87;;;15.50;99.90;;;;;;4941613;29;20687;-86
2023/04/21 11:38:06;;;;;;;9.40;6.93;;;15.40;99.90;;;;;;4946650;29;20203;-87
2023/04/21 11:40:48;;;;;;;8.67;7.77;;;15.20;99.90;;;;;;4942832;29;20288;-85
2023/04/21 11:43:14;;;;;;;9.27;8.20;;;15.40;99.90;;;;;;4934756;29;20188;-87
2023/04/21 11:45:40;;;;;;;8.87;7.50;;;15.50;99.90;;;;;;4942364;29;20192;-87
2023/04/21 11:48:16;;;;;;;9.33;7.37;;;15.50;99.90;;;;;;4941695;29;20276;-85
2023/04/21 11:50:49;;;;;;;8.33;7.30;;;15.70;99.90;;;;;;4924751;29;20190;-87
2023/04/21 11:53:20;;;;;;;8.47;7.13;;;15.70;99.90;;;;;;4944653;29;20248;-85
2023/04/21 11:55:46;;;;;;;10.00;7.47;;;15.80;99.90;;;;;;4961669;29;20173;-86
2023/04/21 11:58:15;;;;;;;8.70;7.80;;;15.70;99.90;;;;;;4942014;29;20200;-86
2023/04/21 12:00:44;;;;;;;9.67;7.70;;;15.80;99.90;;;;;;4942979;29;20189;-87
2023/04/21 12:03:15;;;;;;;8.30;6.97;;;16.10;99.90;;;;;;4962071;29;20188;-86
2023/04/21 12:05:41;;;;;;;8.03;6.13;;;16.20;1.00;;;;;;4944456;29;20195;-87
2023/04/21 12:08:17;;;;;;;9.03;6.77;;;16.40;1.00;;;;;;4937569;29;20217;-87
2023/04/21 12:10:47;;;;;;;6.87;6.17;;;16.40;1.00;;;;;;4935180;29;20331;-85
2023/04/21 12:13:26;;;;;;;7.63;5.53;;;16.50;1.00;;;;;;4935938;29;20296;-84
2023/04/21 12:16:27;;;;;;;6.60;5.80;;;16.50;1.00;;;;;;4924723;29;20177;-84
2023/04/21 12:18:56;;;;;;;7.87;7.03;;;16.40;99.40;;;;;;4921779;29;20199;-86
2023/04/21 12:21:26;;;;;;;8.40;6.90;;;16.40;99.90;;;;;;4921974;29;20193;-85
2023/04/21 12:23:52;;;;;;;7.77;6.50;;;16.50;1.00;;;;;;4922888;29;20689;-85
2023/04/21 12:26:20;;;;;;;9.17;7.00;;;16.70;99.90;;;;;;4940864;29;20199;-85
2023/04/21 12:28:45;;;;;;;8.60;6.90;;;17.10;7.60;;;;;;4923718;29;20183;-85
2023/04/21 12:31:17;;;;;;;8.77;7.10;;;17.00;99.90;;;;;;4939901;29;20209;-86
2023/04/21 12:33:43;;;;;;;7.93;6.73;;;16.70;91.20;;;;;;4925380;29;20248;-86
2023/04/21 12:36:08;;;;;;;7.70;6.60;;;16.70;38.30;;;;;;4951597;29;20177;-85
2023/04/21 12:38:35;;;;;;;8.13;7.20;;;16.70;99.90;;;;;;4930223;29;20193;-87
2023/04/21 12:41:01;;;;;;;9.17;7.37;;;17.10;1.00;;;;;;4934103;29;20309;-84
2023/04/21 12:43:29;;;;;;;7.00;6.23;;;17.30;99.90;;;;;;4932681;29;20183;-86
2023/04/21 12:45:55;;;;;;;8.43;7.17;;;17.20;1.00;;;;;;4954175;29;20177;-86